Portada
METAR-TAF:

METAR-TAF

Aeroports :

Txungking, Xina

latitud: 29-31N, longitud: 106-29E, altitud: 351 m

Observació

L'informe es va fer fa 1 hora i 17 minuts, a les 10:00 UTC
Vent 12 kt del Nord/Nord-Est
Temperatura 11°C
Humitat 82%
Pressió 1012 hPa
Visibilitat 10 km o més
Escasses núvols a una alçada de 1800 ft

METAR: ZUCK 281000Z 03006MPS 9999 FEW018 11/08 Q1012 NOSIG

Hora: 19:17 (11:17 UTC)

Pronòstic

L'informe es va fer fa 8 hores i 5 minuts, a les 03:12 UTC
Pronòstic vàlid del 28 a les 06 UTC al 29 a les 06 UTC
Vent 8 kt del Est/Nord-Est
Visibilitat: 6000 m
Núvols disperses a una alçada de 1000 ft
Cel cobert a una alçada de 3300 ft
Temporalment
l' 28 a les 15 UTC al 28 a les 21 UTC
xàfecs de pluja

TAF: ZUCK 280312Z 2806/2906 06004MPS 6000 SCT010 OVC033 TX14/2808Z TN11/2822Z TEMPO 2815/2821 -SHRA

Observacions i pronòstics meteorològics de més de 4000 aeroports (METAR i TAF).

Les estacions disponibles són els punts grocs i vermells al mapa.

Posi el ratolí al punt desitjat per veure el nom de l'estació.

Feu clic per veure les observacions i els pronòstics meteorològics.

Per canviar el mapa: feu clic els botons verds amb una creu de color negre per apropar; al botó verd amb un guió per allunyar la imatge; o en les fletxes verdes per a mapes adjacents.


METAR-TAF: